Terminal Aerodrome Forecast
Issued by NWS

Home | Current Version | Previous Version | Graphics & Text | Print | Product List | Glossary On
Versions: 1 2 3 4 5 6 7 8 9 10 11 12 13 14 15 16 17 18 19 20 21 22 23 24 25 26 27 28 29 30
032
FTUS43 KTOP 200524
TAFFOE
TAF
KFOE 200524Z 2006/2106 36008KT 3SM -FZRA VCTS OVC006CB
      WS020/20035KT
     FM200800 34009KT 3SM -FZDZ BR OVC006
     FM201200 34009KT 3SM -FZDZ BR OVC006
     FM201500 33011KT P6SM OVC010
     FM202000 34014G20KT P6SM BKN030=

USA.gov is the U.S. government's official web portal to all federal, state and local government web resources and services.